createdAt,value
2019-01-19T12:43:20.874Z,5.97
2019-01-19T13:03:42.958Z,6.20
2019-01-19T13:08:49.077Z,6.83
2019-01-19T13:13:54.447Z,6.20
2019-01-19T13:19:23.827Z,6.37
2019-01-19T13:24:55.533Z,6.23
2019-01-19T13:30:33.362Z,4.97
2019-01-19T13:36:05.468Z,5.00
2019-01-19T13:41:51.678Z,5.00
2019-01-19T13:47:52.234Z,4.93
2019-01-19T13:53:33.640Z,4.90
2019-01-19T13:58:52.346Z,4.60
2019-01-19T14:04:35.956Z,4.27
2019-01-19T14:10:11.837Z,4.70
2019-01-19T14:15:47.730Z,4.80
2019-01-19T14:21:29.578Z,4.27
2019-01-19T14:26:53.515Z,4.43
2019-01-19T14:32:59.880Z,7.87
2019-01-19T14:38:41.200Z,7.47
2019-01-19T14:44:21.212Z,4.57
2019-01-19T14:50:16.203Z,5.13
2019-01-19T14:56:02.741Z,6.77
2019-01-19T15:01:39.138Z,5.27
2019-01-19T15:07:31.637Z,5.03
2019-01-19T15:12:59.402Z,5.80
2019-01-19T15:18:53.710Z,5.77
2019-01-19T15:24:17.373Z,6.53
2019-01-19T15:30:03.434Z,8.30
2019-01-19T15:35:54.448Z,7.20
2019-01-19T15:41:36.627Z,8.37
2019-01-19T15:47:17.520Z,6.87
2019-01-19T15:52:35.754Z,5.20
2019-01-19T15:58:08.728Z,6.20
2019-01-19T16:03:45.361Z,6.37
2019-01-19T16:09:19.301Z,8.13
2019-01-19T16:14:49.886Z,9.10
2019-01-19T16:20:36.362Z,7.10
2019-01-19T16:26:24.899Z,7.50
2019-01-19T16:32:08.053Z,14.73
2019-01-19T16:37:34.033Z,7.67
2019-01-19T16:42:53.747Z,8.00
2019-01-19T16:48:27.214Z,7.67
2019-01-19T16:54:14.520Z,8.07
2019-01-19T16:59:38.984Z,8.33
2019-01-19T17:05:00.876Z,11.80
2019-01-19T17:10:18.474Z,13.37
2019-01-19T17:15:37.378Z,12.73
2019-01-19T17:21:19.104Z,12.30
2019-01-19T17:26:44.921Z,13.27
2019-01-19T17:32:19.280Z,13.63
2019-01-19T17:37:47.176Z,13.73
2019-01-19T17:43:25.886Z,14.30
2019-01-19T17:49:05.474Z,15.43
2019-01-19T17:54:44.659Z,14.03
2019-01-19T18:00:30.202Z,14.97
2019-01-19T18:06:05.526Z,13.77
2019-01-19T18:11:48.458Z,13.73
2019-01-19T18:17:35.092Z,14.00
2019-01-19T18:23:18.697Z,16.13
2019-01-19T18:29:02.916Z,16.40
2019-01-19T18:34:28.027Z,17.07
2019-01-19T18:39:46.658Z,16.63
2019-01-19T18:45:19.438Z,16.23
2019-01-19T18:51:01.524Z,17.00
2019-01-19T18:56:43.990Z,18.17
2019-01-19T19:02:30.320Z,18.13
2019-01-19T19:08:13.718Z,17.93
2019-01-19T19:13:41.939Z,16.97
2019-01-19T19:19:28.020Z,18.20
2019-01-19T19:25:30.283Z,21.47
2019-01-19T19:31:18.248Z,21.23
2019-01-19T19:36:47.805Z,20.53
2019-01-19T19:42:50.840Z,24.10
2019-01-19T19:48:34.512Z,27.93
2019-01-19T19:53:39.339Z,30.30
2019-01-19T19:58:45.291Z,26.50
2019-01-19T20:03:50.703Z,27.67
2019-01-19T20:08:56.630Z,24.67
2019-01-19T20:14:01.558Z,19.33
2019-01-19T20:19:07.770Z,20.10
2019-01-19T20:24:12.990Z,18.00
2019-01-19T20:29:17.806Z,19.90
2019-01-19T20:34:23.374Z,18.60
2019-01-19T20:39:28.404Z,32.27
2019-01-19T20:44:33.808Z,24.97
2019-01-19T20:49:39.008Z,18.13
2019-01-19T20:54:43.911Z,25.90
2019-01-19T20:59:49.920Z,20.80
2019-01-19T21:04:55.095Z,17.70
2019-01-19T21:10:00.162Z,19.33
2019-01-19T21:15:06.884Z,19.20
2019-01-19T21:20:12.446Z,17.90
2019-01-19T21:25:16.678Z,15.60
2019-01-19T21:30:21.708Z,15.80
2019-01-19T21:35:25.998Z,14.50
2019-01-19T21:40:31.017Z,20.93
2019-01-19T21:45:35.338Z,17.47
2019-01-19T21:50:38.742Z,17.90
2019-01-19T21:55:42.824Z,25.40
2019-01-19T22:00:46.520Z,37.07
2019-01-19T22:05:50.738Z,26.57
2019-01-19T22:10:54.132Z,25.47
2019-01-19T22:15:58.592Z,24.10
2019-01-19T22:21:03.113Z,23.00
2019-01-19T22:26:09.498Z,15.57
2019-01-19T22:31:14.135Z,13.83
2019-01-19T22:36:18.838Z,14.77
2019-01-19T22:41:23.214Z,15.10
2019-01-19T22:46:29.394Z,14.77
2019-01-19T22:51:33.872Z,14.67
2019-01-19T22:56:38.158Z,13.50
2019-01-19T23:01:48.561Z,15.70
2019-01-19T23:06:53.201Z,14.67
2019-01-19T23:11:57.394Z,16.00
2019-01-19T23:17:02.467Z,15.83
2019-01-19T23:22:07.885Z,14.90
2019-01-19T23:27:13.209Z,15.43
2019-01-19T23:32:18.604Z,12.63
2019-01-19T23:37:23.963Z,12.33
2019-01-19T23:42:29.378Z,11.10
2019-01-19T23:47:34.536Z,11.93
2019-01-19T23:52:39.782Z,12.47
2019-01-19T23:57:45.765Z,12.20
